sensor_id;sensor_type;location;lat;lon;timestamp;pressure;altitude;pressure_sealevel;temperature
70831;BMP180;58451;51.550;7.208;2022-10-13T00:00:58;101260.40;;;9.20
70831;BMP180;58451;51.550;7.208;2022-10-13T00:03:25;101259.40;;;9.30
70831;BMP180;58451;51.550;7.208;2022-10-13T00:05:52;101253.40;;;9.30
70831;BMP180;58451;51.550;7.208;2022-10-13T00:08:20;101253.20;;;9.40
70831;BMP180;58451;51.550;7.208;2022-10-13T00:10:49;101245.40;;;9.50
70831;BMP180;58451;51.550;7.208;2022-10-13T00:13:20;101244.40;;;9.50
70831;BMP180;58451;51.550;7.208;2022-10-13T00:15:47;101251.60;;;9.60
70831;BMP180;58451;51.550;7.208;2022-10-13T00:18:15;101247.00;;;9.60
70831;BMP180;58451;51.550;7.208;2022-10-13T00:20:48;101247.80;;;9.70
70831;BMP180;58451;51.550;7.208;2022-10-13T00:23:16;101249.60;;;9.70
70831;BMP180;58451;51.550;7.208;2022-10-13T00:25:46;101252.20;;;9.80
70831;BMP180;58451;51.550;7.208;2022-10-13T00:28:16;101245.40;;;9.80
70831;BMP180;58451;51.550;7.208;2022-10-13T00:30:43;101239.80;;;9.80
70831;BMP180;58451;51.550;7.208;2022-10-13T00:33:12;101245.00;;;9.90
70831;BMP180;58451;51.550;7.208;2022-10-13T00:35:46;101238.00;;;9.90
70831;BMP180;58451;51.550;7.208;2022-10-13T00:38:19;101233.00;;;9.90
70831;BMP180;58451;51.550;7.208;2022-10-13T00:40:52;101229.80;;;9.90
70831;BMP180;58451;51.550;7.208;2022-10-13T00:43:24;101231.40;;;9.82
70831;BMP180;58451;51.550;7.208;2022-10-13T00:45:52;101231.80;;;9.80
70831;BMP180;58451;51.550;7.208;2022-10-13T00:48:27;101234.00;;;9.80
70831;BMP180;58451;51.550;7.208;2022-10-13T00:50:57;101234.40;;;9.80
70831;BMP180;58451;51.550;7.208;2022-10-13T00:53:30;101230.80;;;9.80
70831;BMP180;58451;51.550;7.208;2022-10-13T00:55:58;101231.00;;;9.80
70831;BMP180;58451;51.550;7.208;2022-10-13T00:58:26;101228.60;;;9.80
70831;BMP180;58451;51.550;7.208;2022-10-13T01:00:59;101227.80;;;9.80
70831;BMP180;58451;51.550;7.208;2022-10-13T01:03:26;101229.20;;;9.90
70831;BMP180;58451;51.550;7.208;2022-10-13T01:05:59;101235.20;;;9.90
70831;BMP180;58451;51.550;7.208;2022-10-13T01:08:28;101229.80;;;9.90
70831;BMP180;58451;51.550;7.208;2022-10-13T01:25:39;101196.80;;;10.00
70831;BMP180;58451;51.550;7.208;2022-10-13T01:37:21;101189.00;;;10.10
70831;BMP180;58451;51.550;7.208;2022-10-13T01:39:58;101188.40;;;10.16
70831;BMP180;58451;51.550;7.208;2022-10-13T01:42:44;101189.60;;;10.10
70831;BMP180;58451;51.550;7.208;2022-10-13T01:45:17;101188.00;;;10.10
70831;BMP180;58451;51.550;7.208;2022-10-13T01:47:46;101184.60;;;10.20
70831;BMP180;58451;51.550;7.208;2022-10-13T01:50:17;101181.40;;;10.20
70831;BMP180;58451;51.550;7.208;2022-10-13T01:52:45;101184.60;;;10.20
70831;BMP180;58451;51.550;7.208;2022-10-13T01:55:13;101186.60;;;10.30
70831;BMP180;58451;51.550;7.208;2022-10-13T01:57:43;101181.40;;;10.30
70831;BMP180;58451;51.550;7.208;2022-10-13T02:00:18;101179.20;;;10.30
70831;BMP180;58451;51.550;7.208;2022-10-13T02:03:20;101179.60;;;10.30
70831;BMP180;58451;51.550;7.208;2022-10-13T02:05:56;101174.20;;;10.38
70831;BMP180;58451;51.550;7.208;2022-10-13T02:09:03;101175.20;;;10.40
70831;BMP180;58451;51.550;7.208;2022-10-13T02:11:40;101171.20;;;10.40
70831;BMP180;58451;51.550;7.208;2022-10-13T02:14:26;101170.00;;;10.40
70831;BMP180;58451;51.550;7.208;2022-10-13T02:17:01;101167.60;;;10.40
70831;BMP180;58451;51.550;7.208;2022-10-13T02:19:33;101164.40;;;10.40
70831;BMP180;58451;51.550;7.208;2022-10-13T02:22:02;101164.80;;;10.40
70831;BMP180;58451;51.550;7.208;2022-10-13T02:24:30;101166.80;;;10.40
70831;BMP180;58451;51.550;7.208;2022-10-13T02:26:57;101167.80;;;10.40
70831;BMP180;58451;51.550;7.208;2022-10-13T02:29:24;101168.00;;;10.40
70831;BMP180;58451;51.550;7.208;2022-10-13T02:31:51;101165.40;;;10.40
70831;BMP180;58451;51.550;7.208;2022-10-13T02:34:20;101164.60;;;10.40
70831;BMP180;58451;51.550;7.208;2022-10-13T02:36:47;101161.00;;;10.40
70831;BMP180;58451;51.550;7.208;2022-10-13T02:39:14;101160.00;;;10.40
70831;BMP180;58451;51.550;7.208;2022-10-13T02:41:41;101161.40;;;10.40
70831;BMP180;58451;51.550;7.208;2022-10-13T02:44:08;101168.60;;;10.40
70831;BMP180;58451;51.550;7.208;2022-10-13T02:46:40;101166.80;;;10.40
70831;BMP180;58451;51.550;7.208;2022-10-13T02:49:07;101169.60;;;10.46
70831;BMP180;58451;51.550;7.208;2022-10-13T02:51:34;101168.80;;;10.48
70831;BMP180;58451;51.550;7.208;2022-10-13T02:54:06;101168.80;;;10.48
70831;BMP180;58451;51.550;7.208;2022-10-13T02:56:33;101167.60;;;10.50
70831;BMP180;58451;51.550;7.208;2022-10-13T02:58:59;101166.60;;;10.50
70831;BMP180;58451;51.550;7.208;2022-10-13T03:01:26;101167.40;;;10.44
70831;BMP180;58451;51.550;7.208;2022-10-13T03:03:52;101168.80;;;10.40
70831;BMP180;58451;51.550;7.208;2022-10-13T03:06:19;101164.60;;;10.40
70831;BMP180;58451;51.550;7.208;2022-10-13T03:08:46;101160.40;;;10.40
70831;BMP180;58451;51.550;7.208;2022-10-13T03:11:13;101161.40;;;10.40
70831;BMP180;58451;51.550;7.208;2022-10-13T03:13:40;101158.80;;;10.40
70831;BMP180;58451;51.550;7.208;2022-10-13T03:16:06;101163.80;;;10.34
70831;BMP180;58451;51.550;7.208;2022-10-13T03:18:33;101157.60;;;10.30
70831;BMP180;58451;51.550;7.208;2022-10-13T03:21:04;101153.20;;;10.24
70831;BMP180;58451;51.550;7.208;2022-10-13T03:23:32;101149.80;;;10.20
70831;BMP180;58451;51.550;7.208;2022-10-13T03:25:59;101138.40;;;10.20
70831;BMP180;58451;51.550;7.208;2022-10-13T03:28:26;101142.60;;;10.20
70831;BMP180;58451;51.550;7.208;2022-10-13T03:31:06;101139.20;;;10.20
70831;BMP180;58451;51.550;7.208;2022-10-13T03:33:33;101139.20;;;10.16
70831;BMP180;58451;51.550;7.208;2022-10-13T03:36:03;101144.80;;;10.14
70831;BMP180;58451;51.550;7.208;2022-10-13T03:38:32;101143.80;;;10.16
70831;BMP180;58451;51.550;7.208;2022-10-13T03:41:12;101141.20;;;10.20
70831;BMP180;58451;51.550;7.208;2022-10-13T03:43:41;101140.20;;;10.20
70831;BMP180;58451;51.550;7.208;2022-10-13T03:46:12;101141.80;;;10.20
70831;BMP180;58451;51.550;7.208;2022-10-13T03:48:39;101137.80;;;10.20
70831;BMP180;58451;51.550;7.208;2022-10-13T03:51:09;101132.60;;;10.26
70831;BMP180;58451;51.550;7.208;2022-10-13T03:53:43;101133.20;;;10.30
70831;BMP180;58451;51.550;7.208;2022-10-13T03:56:23;101131.20;;;10.30
70831;BMP180;58451;51.550;7.208;2022-10-13T03:59:00;101125.60;;;10.30
70831;BMP180;58451;51.550;7.208;2022-10-13T04:01:28;101120.60;;;10.36
70831;BMP180;58451;51.550;7.208;2022-10-13T04:03:58;101118.40;;;10.40
70831;BMP180;58451;51.550;7.208;2022-10-13T04:06:25;101115.00;;;10.50
70831;BMP180;58451;51.550;7.208;2022-10-13T04:08:53;101111.80;;;10.50
70831;BMP180;58451;51.550;7.208;2022-10-13T04:11:20;101109.20;;;10.50
70831;BMP180;58451;51.550;7.208;2022-10-13T04:13:51;101106.60;;;10.50
70831;BMP180;58451;51.550;7.208;2022-10-13T04:16:24;101113.20;;;10.50
70831;BMP180;58451;51.550;7.208;2022-10-13T04:19:05;101106.00;;;10.60
70831;BMP180;58451;51.550;7.208;2022-10-13T04:21:34;101100.60;;;10.60
70831;BMP180;58451;51.550;7.208;2022-10-13T04:24:02;101107.60;;;10.60
70831;BMP180;58451;51.550;7.208;2022-10-13T04:26:33;101106.60;;;10.68
70831;BMP180;58451;51.550;7.208;2022-10-13T04:29:07;101103.80;;;10.70
70831;BMP180;58451;51.550;7.208;2022-10-13T04:31:35;101091.00;;;10.70
70831;BMP180;58451;51.550;7.208;2022-10-13T04:34:02;101092.60;;;10.76
70831;BMP180;58451;51.550;7.208;2022-10-13T04:36:29;101093.40;;;10.80
70831;BMP180;58451;51.550;7.208;2022-10-13T04:38:56;101097.80;;;10.80
70831;BMP180;58451;51.550;7.208;2022-10-13T04:41:23;101092.60;;;10.80
70831;BMP180;58451;51.550;7.208;2022-10-13T04:43:52;101091.40;;;10.90
70831;BMP180;58451;51.550;7.208;2022-10-13T04:46:23;101089.40;;;10.90
70831;BMP180;58451;51.550;7.208;2022-10-13T04:48:52;101089.20;;;11.00
70831;BMP180;58451;51.550;7.208;2022-10-13T04:51:23;101087.20;;;11.00
70831;BMP180;58451;51.550;7.208;2022-10-13T04:53:56;101089.60;;;11.00
70831;BMP180;58451;51.550;7.208;2022-10-13T04:56:24;101083.80;;;11.00
70831;BMP180;58451;51.550;7.208;2022-10-13T04:58:51;101083.40;;;11.00
70831;BMP180;58451;51.550;7.208;2022-10-13T05:01:21;101078.20;;;11.08
70831;BMP180;58451;51.550;7.208;2022-10-13T05:03:59;101078.00;;;11.10
70831;BMP180;58451;51.550;7.208;2022-10-13T05:06:30;101081.80;;;11.10
70831;BMP180;58451;51.550;7.208;2022-10-13T05:08:58;101076.40;;;11.10
70831;BMP180;58451;51.550;7.208;2022-10-13T05:11:26;101072.20;;;11.10
70831;BMP180;58451;51.550;7.208;2022-10-13T05:13:54;101067.40;;;11.10
70831;BMP180;58451;51.550;7.208;2022-10-13T05:16:22;101068.80;;;11.10
70831;BMP180;58451;51.550;7.208;2022-10-13T05:18:53;101073.80;;;11.10
70831;BMP180;58451;51.550;7.208;2022-10-13T05:21:28;101070.80;;;11.10
70831;BMP180;58451;51.550;7.208;2022-10-13T05:23:56;101071.60;;;11.10
70831;BMP180;58451;51.550;7.208;2022-10-13T05:26:26;101071.80;;;11.14
70831;BMP180;58451;51.550;7.208;2022-10-13T05:28:59;101073.00;;;11.10
70831;BMP180;58451;51.550;7.208;2022-10-13T05:31:31;101069.40;;;11.10
70831;BMP180;58451;51.550;7.208;2022-10-13T05:33:59;101066.00;;;11.10
70831;BMP180;58451;51.550;7.208;2022-10-13T05:36:32;101070.40;;;11.10
70831;BMP180;58451;51.550;7.208;2022-10-13T05:39:05;101073.00;;;11.10
70831;BMP180;58451;51.550;7.208;2022-10-13T05:41:33;101067.40;;;11.10
70831;BMP180;58451;51.550;7.208;2022-10-13T05:44:07;101065.40;;;11.10
70831;BMP180;58451;51.550;7.208;2022-10-13T05:46:39;101062.00;;;11.10
70831;BMP180;58451;51.550;7.208;2022-10-13T05:49:06;101055.60;;;11.10
70831;BMP180;58451;51.550;7.208;2022-10-13T05:51:37;101062.00;;;11.10
70831;BMP180;58451;51.550;7.208;2022-10-13T05:54:13;101057.80;;;11.12
70831;BMP180;58451;51.550;7.208;2022-10-13T05:56:53;101064.80;;;11.10
70831;BMP180;58451;51.550;7.208;2022-10-13T05:59:23;101051.80;;;11.10
70831;BMP180;58451;51.550;7.208;2022-10-13T06:01:53;101054.40;;;11.14
70831;BMP180;58451;51.550;7.208;2022-10-13T06:04:32;101060.20;;;11.20
70831;BMP180;58451;51.550;7.208;2022-10-13T06:07:00;101056.20;;;11.20
70831;BMP180;58451;51.550;7.208;2022-10-13T06:09:33;101052.80;;;11.20
70831;BMP180;58451;51.550;7.208;2022-10-13T06:12:01;101048.20;;;11.20
70831;BMP180;58451;51.550;7.208;2022-10-13T06:14:27;101040.80;;;11.20
70831;BMP180;58451;51.550;7.208;2022-10-13T06:16:54;101043.00;;;11.30
70831;BMP180;58451;51.550;7.208;2022-10-13T06:19:21;101037.80;;;11.30
70831;BMP180;58451;51.550;7.208;2022-10-13T06:21:48;101038.20;;;11.30
70831;BMP180;58451;51.550;7.208;2022-10-13T06:24:15;101032.00;;;11.30
70831;BMP180;58451;51.550;7.208;2022-10-13T06:26:42;101026.60;;;11.40
70831;BMP180;58451;51.550;7.208;2022-10-13T06:29:09;101033.20;;;11.40
70831;BMP180;58451;51.550;7.208;2022-10-13T06:31:36;101026.40;;;11.40
70831;BMP180;58451;51.550;7.208;2022-10-13T06:34:03;101025.80;;;11.42
70831;BMP180;58451;51.550;7.208;2022-10-13T06:36:29;101024.40;;;11.50
70831;BMP180;58451;51.550;7.208;2022-10-13T06:38:56;101015.00;;;11.50
70831;BMP180;58451;51.550;7.208;2022-10-13T06:41:23;101022.80;;;11.52
70831;BMP180;58451;51.550;7.208;2022-10-13T06:43:50;101015.20;;;11.60
70831;BMP180;58451;51.550;7.208;2022-10-13T06:46:17;101014.20;;;11.60
70831;BMP180;58451;51.550;7.208;2022-10-13T06:48:43;101011.00;;;11.70
70831;BMP180;58451;51.550;7.208;2022-10-13T06:51:11;101003.00;;;11.70
70831;BMP180;58451;51.550;7.208;2022-10-13T06:53:37;101017.80;;;11.70
70831;BMP180;58451;51.550;7.208;2022-10-13T06:56:07;101016.20;;;11.80
70831;BMP180;58451;51.550;7.208;2022-10-13T06:58:36;101019.40;;;11.80
70831;BMP180;58451;51.550;7.208;2022-10-13T07:01:04;101021.00;;;11.90
70831;BMP180;58451;51.550;7.208;2022-10-13T07:03:32;101029.00;;;12.00
70831;BMP180;58451;51.550;7.208;2022-10-13T07:06:04;101038.80;;;12.08
70831;BMP180;58451;51.550;7.208;2022-10-13T07:08:32;101043.20;;;12.18
70831;BMP180;58451;51.550;7.208;2022-10-13T07:11:07;101047.00;;;12.20
70831;BMP180;58451;51.550;7.208;2022-10-13T07:13:41;101043.00;;;12.20
70831;BMP180;58451;51.550;7.208;2022-10-13T07:16:13;101046.20;;;12.26
70831;BMP180;58451;51.550;7.208;2022-10-13T07:18:41;101044.60;;;12.30
70831;BMP180;58451;51.550;7.208;2022-10-13T07:21:08;101043.60;;;12.30
70831;BMP180;58451;51.550;7.208;2022-10-13T07:23:35;101040.20;;;12.30
70831;BMP180;58451;51.550;7.208;2022-10-13T07:26:10;101046.40;;;12.40
70831;BMP180;58451;51.550;7.208;2022-10-13T07:28:38;101046.80;;;12.50
70831;BMP180;58451;51.550;7.208;2022-10-13T07:31:19;101046.60;;;12.52
70831;BMP180;58451;51.550;7.208;2022-10-13T07:33:48;101051.00;;;12.70
70831;BMP180;58451;51.550;7.208;2022-10-13T07:36:16;101043.80;;;12.80
70831;BMP180;58451;51.550;7.208;2022-10-13T07:38:44;101041.00;;;13.00
70831;BMP180;58451;51.550;7.208;2022-10-13T07:41:12;101035.80;;;13.10
70831;BMP180;58451;51.550;7.208;2022-10-13T07:43:39;101048.00;;;13.20
70831;BMP180;58451;51.550;7.208;2022-10-13T07:46:07;101048.20;;;13.30
70831;BMP180;58451;51.550;7.208;2022-10-13T07:48:34;101048.60;;;13.34
70831;BMP180;58451;51.550;7.208;2022-10-13T07:51:08;101043.80;;;13.40
70831;BMP180;58451;51.550;7.208;2022-10-13T07:53:35;101038.20;;;13.50
70831;BMP180;58451;51.550;7.208;2022-10-13T07:56:05;101035.00;;;13.60
70831;BMP180;58451;51.550;7.208;2022-10-13T07:58:36;101043.20;;;13.70
70831;BMP180;58451;51.550;7.208;2022-10-13T08:01:03;101044.60;;;13.80
70831;BMP180;58451;51.550;7.208;2022-10-13T08:03:30;101041.40;;;13.90
70831;BMP180;58451;51.550;7.208;2022-10-13T08:06:00;101049.40;;;14.00
70831;BMP180;58451;51.550;7.208;2022-10-13T08:08:28;101041.00;;;14.20
70831;BMP180;58451;51.550;7.208;2022-10-13T08:11:07;101044.80;;;14.30
70831;BMP180;58451;51.550;7.208;2022-10-13T08:13:37;101042.00;;;14.40
70831;BMP180;58451;51.550;7.208;2022-10-13T08:16:11;101046.20;;;14.40
70831;BMP180;58451;51.550;7.208;2022-10-13T08:18:38;101039.00;;;14.50
70831;BMP180;58451;51.550;7.208;2022-10-13T08:21:12;101039.80;;;14.66
70831;BMP180;58451;51.550;7.208;2022-10-13T08:23:59;101034.80;;;14.80
70831;BMP180;58451;51.550;7.208;2022-10-13T08:26:27;101027.20;;;14.88
70831;BMP180;58451;51.550;7.208;2022-10-13T08:28:56;101037.20;;;15.00
70831;BMP180;58451;51.550;7.208;2022-10-13T08:31:43;101038.40;;;15.10
70831;BMP180;58451;51.550;7.208;2022-10-13T08:34:11;101037.20;;;15.10
70831;BMP180;58451;51.550;7.208;2022-10-13T08:36:38;101044.00;;;15.08
70831;BMP180;58451;51.550;7.208;2022-10-13T08:39:06;101040.60;;;15.10
70831;BMP180;58451;51.550;7.208;2022-10-13T08:41:40;101040.00;;;15.10
70831;BMP180;58451;51.550;7.208;2022-10-13T08:47:41;101047.20;;;15.00
70831;BMP180;58451;51.550;7.208;2022-10-13T08:50:19;101047.00;;;15.00
70831;BMP180;58451;51.550;7.208;2022-10-13T08:52:55;101051.00;;;15.00
70831;BMP180;58451;51.550;7.208;2022-10-13T08:55:40;101051.60;;;15.00
70831;BMP180;58451;51.550;7.208;2022-10-13T09:00:43;101048.60;;;14.90
70831;BMP180;58451;51.550;7.208;2022-10-13T09:03:25;101047.60;;;14.98
70831;BMP180;58451;51.550;7.208;2022-10-13T09:08:49;101045.40;;;15.00
70831;BMP180;58451;51.550;7.208;2022-10-13T09:11:17;101045.60;;;15.00
70831;BMP180;58451;51.550;7.208;2022-10-13T09:13:44;101045.00;;;14.90
70831;BMP180;58451;51.550;7.208;2022-10-13T09:18:10;101038.20;;;14.86
70831;BMP180;58451;51.550;7.208;2022-10-13T09:20:39;101028.20;;;14.90
70831;BMP180;58451;51.550;7.208;2022-10-13T09:23:17;101026.60;;;14.90
70831;BMP180;58451;51.550;7.208;2022-10-13T09:25:51;101024.20;;;15.00
70831;BMP180;58451;51.550;7.208;2022-10-13T09:28:23;101015.80;;;15.22
70831;BMP180;58451;51.550;7.208;2022-10-13T09:31:05;101009.40;;;15.52
70831;BMP180;58451;51.550;7.208;2022-10-13T09:33:40;101013.00;;;15.90
70831;BMP180;58451;51.550;7.208;2022-10-13T09:36:10;101007.60;;;16.10
70831;BMP180;58451;51.550;7.208;2022-10-13T09:38:44;101008.20;;;16.38
70831;BMP180;58451;51.550;7.208;2022-10-13T09:41:29;101001.40;;;16.60
70831;BMP180;58451;51.550;7.208;2022-10-13T09:44:07;101003.60;;;16.70
70831;BMP180;58451;51.550;7.208;2022-10-13T09:46:45;100997.40;;;16.80
70831;BMP180;58451;51.550;7.208;2022-10-13T09:54:43;100992.40;;;17.20
70831;BMP180;58451;51.550;7.208;2022-10-13T09:57:44;100996.20;;;17.34
70831;BMP180;58451;51.550;7.208;2022-10-13T10:00:20;100998.60;;;17.60
70831;BMP180;58451;51.550;7.208;2022-10-13T10:03:13;101000.20;;;17.90
70831;BMP180;58451;51.550;7.208;2022-10-13T10:05:53;100996.60;;;18.10
70831;BMP180;58451;51.550;7.208;2022-10-13T10:08:41;100994.00;;;18.38
70831;BMP180;58451;51.550;7.208;2022-10-13T10:11:49;100997.60;;;18.40
70831;BMP180;58451;51.550;7.208;2022-10-13T10:14:32;100995.40;;;18.50
70831;BMP180;58451;51.550;7.208;2022-10-13T10:22:51;100984.60;;;18.52
70831;BMP180;58451;51.550;7.208;2022-10-13T10:25:50;100987.80;;;18.50
70831;BMP180;58451;51.550;7.208;2022-10-13T10:29:10;100985.40;;;18.50
70831;BMP180;58451;51.550;7.208;2022-10-13T10:34:52;100985.60;;;18.60
70831;BMP180;58451;51.550;7.208;2022-10-13T10:45:58;100981.20;;;18.50
70831;BMP180;58451;51.550;7.208;2022-10-13T10:48:36;100978.00;;;18.40
70831;BMP180;58451;51.550;7.208;2022-10-13T10:51:08;100974.40;;;18.30
70831;BMP180;58451;51.550;7.208;2022-10-13T10:57:05;100967.20;;;18.30
70831;BMP180;58451;51.550;7.208;2022-10-13T11:03:09;100958.20;;;18.50
70831;BMP180;58451;51.550;7.208;2022-10-13T11:08:47;100945.00;;;18.90
70831;BMP180;58451;51.550;7.208;2022-10-13T11:19:32;100937.60;;;19.40
70831;BMP180;58451;51.550;7.208;2022-10-13T11:43:47;100921.80;;;19.20
70831;BMP180;58451;51.550;7.208;2022-10-13T11:50:01;100921.40;;;19.20
70831;BMP180;58451;51.550;7.208;2022-10-13T11:55:19;100922.80;;;19.32
70831;BMP180;58451;51.550;7.208;2022-10-13T11:57:49;100921.20;;;19.30
70831;BMP180;58451;51.550;7.208;2022-10-13T12:00:18;100922.80;;;19.34
70831;BMP180;58451;51.550;7.208;2022-10-13T12:02:51;100922.60;;;19.40
70831;BMP180;58451;51.550;7.208;2022-10-13T12:05:26;100919.20;;;19.40
70831;BMP180;58451;51.550;7.208;2022-10-13T12:07:59;100923.20;;;19.30
70831;BMP180;58451;51.550;7.208;2022-10-13T12:10:35;100922.00;;;19.20
70831;BMP180;58451;51.550;7.208;2022-10-13T12:13:05;100924.60;;;19.00
70831;BMP180;58451;51.550;7.208;2022-10-13T12:15:37;100919.40;;;18.90
70831;BMP180;58451;51.550;7.208;2022-10-13T12:18:27;100922.40;;;18.98
70831;BMP180;58451;51.550;7.208;2022-10-13T12:21:01;100927.80;;;18.80
70831;BMP180;58451;51.550;7.208;2022-10-13T12:23:30;100930.20;;;18.60
70831;BMP180;58451;51.550;7.208;2022-10-13T12:25:58;100928.40;;;18.50
70831;BMP180;58451;51.550;7.208;2022-10-13T12:28:47;100926.80;;;18.30
70831;BMP180;58451;51.550;7.208;2022-10-13T12:31:19;100927.40;;;18.16
70831;BMP180;58451;51.550;7.208;2022-10-13T12:33:58;100929.60;;;17.98
70831;BMP180;58451;51.550;7.208;2022-10-13T12:36:28;100927.20;;;17.78
70831;BMP180;58451;51.550;7.208;2022-10-13T12:39:12;100923.40;;;17.60
70831;BMP180;58451;51.550;7.208;2022-10-13T12:41:43;100918.80;;;17.40
70831;BMP180;58451;51.550;7.208;2022-10-13T12:44:31;100922.00;;;17.30
70831;BMP180;58451;51.550;7.208;2022-10-13T12:47:00;100920.20;;;17.20
70831;BMP180;58451;51.550;7.208;2022-10-13T12:49:34;100916.20;;;17.20
70831;BMP180;58451;51.550;7.208;2022-10-13T12:52:14;100919.20;;;17.20
70831;BMP180;58451;51.550;7.208;2022-10-13T12:54:49;100917.60;;;17.10
70831;BMP180;58451;51.550;7.208;2022-10-13T12:57:37;100920.20;;;17.10
70831;BMP180;58451;51.550;7.208;2022-10-13T13:02:55;100919.80;;;16.90
70831;BMP180;58451;51.550;7.208;2022-10-13T13:05:36;100922.00;;;16.86
70831;BMP180;58451;51.550;7.208;2022-10-13T13:08:26;100927.20;;;16.80
70831;BMP180;58451;51.550;7.208;2022-10-13T13:11:05;100930.80;;;16.60
70831;BMP180;58451;51.550;7.208;2022-10-13T13:13:33;100931.20;;;16.40
70831;BMP180;58451;51.550;7.208;2022-10-13T13:16:20;100927.40;;;16.26
70831;BMP180;58451;51.550;7.208;2022-10-13T13:18:50;100928.00;;;16.20
70831;BMP180;58451;51.550;7.208;2022-10-13T13:21:18;100931.20;;;16.20
70831;BMP180;58451;51.550;7.208;2022-10-13T13:23:47;100932.60;;;16.20
70831;BMP180;58451;51.550;7.208;2022-10-13T13:26:23;100930.00;;;16.30
70831;BMP180;58451;51.550;7.208;2022-10-13T13:28:54;100935.60;;;16.40
70831;BMP180;58451;51.550;7.208;2022-10-13T13:31:24;100928.60;;;16.50
70831;BMP180;58451;51.550;7.208;2022-10-13T13:33:52;100926.40;;;16.60
70831;BMP180;58451;51.550;7.208;2022-10-13T13:36:22;100926.80;;;16.68
70831;BMP180;58451;51.550;7.208;2022-10-13T13:38:53;100927.20;;;16.70
70831;BMP180;58451;51.550;7.208;2022-10-13T13:41:20;100925.20;;;16.60
70831;BMP180;58451;51.550;7.208;2022-10-13T13:43:48;100918.60;;;16.50
70831;BMP180;58451;51.550;7.208;2022-10-13T13:46:22;100916.60;;;16.40
70831;BMP180;58451;51.550;7.208;2022-10-13T13:48:50;100912.00;;;16.42
70831;BMP180;58451;51.550;7.208;2022-10-13T13:51:17;100917.40;;;16.50
70831;BMP180;58451;51.550;7.208;2022-10-13T13:53:44;100914.80;;;16.50
70831;BMP180;58451;51.550;7.208;2022-10-13T13:56:15;100911.80;;;16.50
70831;BMP180;58451;51.550;7.208;2022-10-13T13:58:43;100905.40;;;16.60
70831;BMP180;58451;51.550;7.208;2022-10-13T14:01:11;100903.20;;;16.70
70831;BMP180;58451;51.550;7.208;2022-10-13T14:03:38;100897.60;;;16.80
70831;BMP180;58451;51.550;7.208;2022-10-13T14:06:07;100891.40;;;16.70
70831;BMP180;58451;51.550;7.208;2022-10-13T14:08:35;100891.00;;;16.70
70831;BMP180;58451;51.550;7.208;2022-10-13T14:11:09;100891.20;;;16.66
70831;BMP180;58451;51.550;7.208;2022-10-13T14:13:36;100888.60;;;16.70
70831;BMP180;58451;51.550;7.208;2022-10-13T14:16:03;100884.80;;;16.60
70831;BMP180;58451;51.550;7.208;2022-10-13T14:18:30;100889.60;;;16.50
70831;BMP180;58451;51.550;7.208;2022-10-13T14:20:58;100891.00;;;16.40
70831;BMP180;58451;51.550;7.208;2022-10-13T14:23:25;100883.20;;;16.30
70831;BMP180;58451;51.550;7.208;2022-10-13T14:25:52;100887.40;;;16.20
70831;BMP180;58451;51.550;7.208;2022-10-13T14:28:19;100891.00;;;16.20
70831;BMP180;58451;51.550;7.208;2022-10-13T14:30:46;100893.60;;;16.10
70831;BMP180;58451;51.550;7.208;2022-10-13T14:33:12;100894.40;;;16.08
70831;BMP180;58451;51.550;7.208;2022-10-13T14:35:44;100889.00;;;15.90
70831;BMP180;58451;51.550;7.208;2022-10-13T14:38:14;100891.40;;;15.80
70831;BMP180;58451;51.550;7.208;2022-10-13T14:40:43;100891.60;;;15.72
70831;BMP180;58451;51.550;7.208;2022-10-13T14:43:09;100888.80;;;15.60
70831;BMP180;58451;51.550;7.208;2022-10-13T14:45:36;100890.60;;;15.60
70831;BMP180;58451;51.550;7.208;2022-10-13T14:48:04;100887.00;;;15.56
70831;BMP180;58451;51.550;7.208;2022-10-13T14:50:32;100891.00;;;15.50
70831;BMP180;58451;51.550;7.208;2022-10-13T14:52:59;100890.00;;;15.50
70831;BMP180;58451;51.550;7.208;2022-10-13T14:55:26;100893.40;;;15.50
70831;BMP180;58451;51.550;7.208;2022-10-13T14:57:53;100887.20;;;15.50
70831;BMP180;58451;51.550;7.208;2022-10-13T15:00:19;100883.20;;;15.50
70831;BMP180;58451;51.550;7.208;2022-10-13T15:02:46;100874.60;;;15.50
70831;BMP180;58451;51.550;7.208;2022-10-13T15:05:13;100875.80;;;15.50
70831;BMP180;58451;51.550;7.208;2022-10-13T15:07:40;100873.80;;;15.50
70831;BMP180;58451;51.550;7.208;2022-10-13T15:10:07;100874.20;;;15.50
70831;BMP180;58451;51.550;7.208;2022-10-13T15:12:34;100876.00;;;15.50
70831;BMP180;58451;51.550;7.208;2022-10-13T15:15:02;100870.60;;;15.60
70831;BMP180;58451;51.550;7.208;2022-10-13T15:17:30;100871.40;;;15.60
70831;BMP180;58451;51.550;7.208;2022-10-13T15:19:57;100871.00;;;15.70
70831;BMP180;58451;51.550;7.208;2022-10-13T15:22:24;100873.60;;;15.60
70831;BMP180;58451;51.550;7.208;2022-10-13T15:24:51;100867.20;;;15.60
70831;BMP180;58451;51.550;7.208;2022-10-13T15:27:17;100864.80;;;15.50
70831;BMP180;58451;51.550;7.208;2022-10-13T15:29:44;100869.20;;;15.50
70831;BMP180;58451;51.550;7.208;2022-10-13T15:32:15;100862.40;;;15.50
70831;BMP180;58451;51.550;7.208;2022-10-13T15:34:48;100864.40;;;15.50
70831;BMP180;58451;51.550;7.208;2022-10-13T15:37:15;100859.60;;;15.40
70831;BMP180;58451;51.550;7.208;2022-10-13T15:39:41;100854.80;;;15.40
70831;BMP180;58451;51.550;7.208;2022-10-13T15:42:10;100854.20;;;15.40
70831;BMP180;58451;51.550;7.208;2022-10-13T15:44:37;100849.80;;;15.30
70831;BMP180;58451;51.550;7.208;2022-10-13T15:47:24;100850.40;;;15.30
70831;BMP180;58451;51.550;7.208;2022-10-13T15:49:50;100846.60;;;15.30
70831;BMP180;58451;51.550;7.208;2022-10-13T15:52:17;100849.20;;;15.28
70831;BMP180;58451;51.550;7.208;2022-10-13T15:54:46;100848.80;;;15.22
70831;BMP180;58451;51.550;7.208;2022-10-13T15:57:17;100847.60;;;15.20
70831;BMP180;58451;51.550;7.208;2022-10-13T15:59:44;100845.80;;;15.20
70831;BMP180;58451;51.550;7.208;2022-10-13T16:02:10;100837.60;;;15.20
70831;BMP180;58451;51.550;7.208;2022-10-13T16:04:37;100834.80;;;15.20
70831;BMP180;58451;51.550;7.208;2022-10-13T16:07:04;100836.40;;;15.16